createdAt,value
2019-02-15T00:01:40.892Z,68.15
2019-02-15T00:06:44.195Z,68.12
2019-02-15T00:11:47.433Z,69.93
2019-02-15T00:16:50.887Z,68.87
2019-02-15T00:21:54.577Z,69.51
2019-02-15T00:26:57.837Z,69.00
2019-02-15T00:32:01.181Z,68.57
2019-02-15T00:37:04.576Z,67.97
2019-02-15T00:42:07.887Z,69.75
2019-02-15T00:47:21.329Z,68.53
2019-02-15T00:54:30.906Z,69.20
2019-02-15T00:59:40.274Z,68.60
2019-02-15T01:05:04.601Z,68.31
2019-02-15T01:10:17.041Z,69.32
2019-02-15T01:15:20.268Z,68.88
2019-02-15T01:20:23.760Z,69.66
2019-02-15T01:25:27.022Z,68.94
2019-02-15T01:32:37.701Z,69.44
2019-02-15T01:37:50.086Z,69.99
2019-02-15T01:42:58.726Z,70.11
2019-02-15T01:48:02.048Z,70.98
2019-02-15T01:53:05.407Z,68.90
2019-02-15T01:58:08.629Z,69.53
2019-02-15T02:03:11.986Z,69.09
2019-02-15T02:08:18.598Z,70.18
2019-02-15T02:13:21.885Z,68.95
2019-02-15T02:18:25.228Z,70.64
2019-02-15T02:23:32.564Z,69.38
2019-02-15T02:28:35.836Z,68.86
2019-02-15T02:33:39.167Z,68.21
2019-02-15T02:38:42.525Z,68.62
2019-02-15T02:43:45.839Z,69.00
2019-02-15T02:48:49.128Z,69.30
2019-02-15T02:53:52.431Z,69.45
2019-02-15T02:58:55.662Z,68.90
2019-02-15T03:03:58.916Z,70.61
2019-02-15T03:09:02.138Z,69.37
2019-02-15T03:14:11.318Z,70.64
2019-02-15T03:19:08.759Z,71.35
2019-02-15T03:24:12.146Z,69.97
2019-02-15T03:29:15.448Z,70.38
2019-02-15T03:34:18.716Z,69.02
2019-02-15T03:39:29.086Z,69.24
2019-02-15T03:44:32.405Z,69.85
2019-02-15T03:49:35.634Z,70.17
2019-02-15T03:54:40.155Z,69.07
2019-02-15T03:59:43.372Z,69.57
2019-02-15T04:04:46.619Z,69.33
2019-02-15T04:09:52.709Z,70.96
2019-02-15T04:14:56.113Z,70.66
2019-02-15T04:19:59.398Z,69.62
2019-02-15T04:25:02.713Z,69.33
2019-02-15T04:30:07.145Z,68.89
2019-02-15T04:35:10.378Z,69.41
2019-02-15T04:40:13.661Z,69.45
2019-02-15T04:45:16.894Z,70.15
2019-02-15T04:50:20.178Z,70.67
2019-02-15T04:55:23.487Z,70.60
2019-02-15T05:00:26.845Z,70.23
2019-02-15T05:05:30.107Z,70.27
2019-02-15T05:10:34.357Z,70.30
2019-02-15T05:15:37.729Z,70.00
2019-02-15T05:20:42.036Z,69.60
2019-02-15T05:25:45.235Z,69.78
2019-02-15T05:30:48.590Z,71.47
2019-02-15T05:35:51.804Z,71.37
2019-02-15T05:40:55.109Z,70.15
2019-02-15T05:45:58.503Z,71.05
2019-02-15T05:51:01.893Z,70.25
2019-02-15T05:56:05.129Z,69.86
2019-02-15T06:01:08.371Z,70.37
2019-02-15T06:06:11.710Z,70.86
2019-02-15T06:11:14.927Z,70.80
2019-02-15T06:16:18.320Z,71.45
2019-02-15T06:21:21.547Z,70.80
2019-02-15T06:26:25.617Z,70.57
2019-02-15T06:31:28.899Z,70.85
2019-02-15T06:36:36.105Z,71.10
2019-02-15T06:41:39.322Z,70.54
2019-02-15T06:46:42.614Z,70.51
2019-02-15T06:51:58.593Z,70.29
2019-02-15T06:57:02.829Z,70.79
2019-02-15T07:02:14.104Z,69.50
2019-02-15T07:07:17.350Z,70.61
2019-02-15T07:12:20.702Z,70.59
2019-02-15T07:17:24.144Z,69.52
2019-02-15T07:22:27.415Z,69.91
2019-02-15T07:27:30.678Z,70.66
2019-02-15T07:32:33.991Z,69.82
2019-02-15T07:37:37.291Z,69.03
2019-02-15T07:42:40.614Z,69.40
2019-02-15T07:47:43.910Z,69.05
2019-02-15T07:52:47.265Z,69.76
2019-02-15T07:57:50.606Z,69.73
2019-02-15T08:02:53.843Z,69.41
2019-02-15T08:07:57.256Z,69.89
2019-02-15T08:13:00.614Z,68.86
2019-02-15T08:18:03.842Z,68.93
2019-02-15T08:23:07.113Z,69.47
2019-02-15T08:28:10.398Z,68.68
2019-02-15T08:33:13.739Z,69.25
2019-02-15T08:38:17.058Z,68.36
2019-02-15T08:43:20.396Z,67.81
2019-02-15T08:48:23.736Z,67.94
2019-02-15T08:53:27.091Z,67.61
2019-02-15T08:58:30.322Z,67.57
2019-02-15T09:03:33.525Z,66.24
2019-02-15T09:08:36.756Z,66.71
2019-02-15T09:13:40.037Z,65.95
2019-02-15T09:18:43.361Z,65.23
2019-02-15T09:23:46.721Z,65.06
2019-02-15T09:28:55.954Z,63.34
2019-02-15T09:33:59.209Z,61.42
2019-02-15T09:39:02.590Z,61.32
2019-02-15T09:44:05.833Z,60.28
2019-02-15T09:49:09.141Z,60.00
2019-02-15T09:54:12.337Z,61.14
2019-02-15T09:59:15.554Z,60.18
2019-02-15T10:04:18.850Z,59.67
2019-02-15T10:09:22.237Z,59.11
2019-02-15T10:14:25.444Z,59.18
2019-02-15T10:19:28.743Z,57.01
2019-02-15T10:24:32.070Z,56.42
2019-02-15T10:29:35.408Z,55.84
2019-02-15T10:34:38.721Z,55.57
2019-02-15T10:39:41.926Z,53.90
2019-02-15T10:44:45.244Z,53.59
2019-02-15T10:49:48.445Z,52.74
2019-02-15T10:54:51.731Z,52.69
2019-02-15T10:59:55.054Z,52.90
2019-02-15T11:04:58.560Z,51.72
2019-02-15T11:10:01.925Z,51.14
2019-02-15T11:15:05.705Z,51.16
2019-02-15T11:20:10.317Z,51.49
2019-02-15T11:25:13.641Z,50.47
2019-02-15T11:30:16.960Z,50.93
2019-02-15T11:35:20.336Z,50.34
2019-02-15T11:40:23.620Z,49.42
2019-02-15T11:45:26.980Z,48.65
2019-02-15T11:50:33.458Z,46.88
2019-02-15T11:55:36.771Z,44.73
2019-02-15T12:00:40.122Z,45.29
2019-02-15T12:05:43.430Z,44.80
2019-02-15T12:10:46.737Z,44.95
2019-02-15T12:15:50.001Z,43.33
2019-02-15T12:20:53.321Z,42.89
2019-02-15T12:25:56.619Z,43.88
2019-02-15T12:30:59.937Z,41.74
2019-02-15T12:36:03.437Z,40.04
2019-02-15T12:41:06.666Z,39.31
2019-02-15T12:46:09.885Z,39.70
2019-02-15T12:51:13.297Z,38.77
2019-02-15T12:56:16.683Z,38.73
2019-02-15T13:01:20.004Z,38.68
2019-02-15T13:06:28.722Z,38.30
2019-02-15T13:11:26.829Z,38.23
2019-02-15T13:16:30.272Z,38.32
2019-02-15T13:21:33.556Z,36.65
2019-02-15T13:26:36.807Z,36.30
2019-02-15T13:31:40.421Z,36.30
2019-02-15T13:36:43.801Z,36.19
2019-02-15T13:41:47.199Z,35.91
2019-02-15T13:46:50.510Z,36.87
2019-02-15T13:51:53.881Z,34.78
2019-02-15T13:56:57.354Z,36.59
2019-02-15T14:02:00.620Z,34.77
2019-02-15T14:07:13.676Z,33.87
2019-02-15T14:12:16.962Z,34.22
2019-02-15T14:17:20.278Z,33.41
2019-02-15T14:22:23.620Z,33.36
2019-02-15T14:27:26.833Z,32.09
2019-02-15T14:32:30.085Z,33.18
2019-02-15T14:37:33.376Z,32.72
2019-02-15T14:42:36.678Z,34.74
2019-02-15T14:47:39.973Z,32.63
2019-02-15T14:52:43.314Z,33.83
2019-02-15T14:57:47.074Z,34.10
2019-02-15T15:02:50.257Z,32.80
2019-02-15T15:07:53.566Z,34.17
2019-02-15T15:12:56.864Z,34.08
2019-02-15T15:18:10.701Z,33.47
2019-02-15T15:23:03.482Z,33.99
2019-02-15T15:28:06.723Z,36.59
2019-02-15T15:33:10.149Z,37.49
2019-02-15T15:38:13.533Z,39.43
2019-02-15T15:43:16.844Z,41.04
2019-02-15T15:48:22.890Z,42.34
2019-02-15T15:53:24.232Z,45.50
2019-02-15T15:58:27.555Z,47.29
2019-02-15T16:03:30.823Z,45.36
2019-02-15T16:08:34.196Z,44.79
2019-02-15T16:13:37.962Z,46.11
2019-02-15T16:18:41.227Z,45.28
2019-02-15T16:23:45.521Z,49.76
2019-02-15T16:28:48.905Z,46.27
2019-02-15T16:33:52.286Z,49.97
2019-02-15T16:38:55.660Z,50.13
2019-02-15T16:43:58.918Z,47.95
2019-02-15T16:49:02.288Z,51.37
2019-02-15T16:54:05.549Z,50.36
2019-02-15T16:59:08.803Z,48.98
2019-02-15T17:04:12.106Z,50.55
2019-02-15T17:09:17.484Z,50.22
2019-02-15T17:14:20.777Z,51.34
2019-02-15T17:19:24.081Z,55.26
2019-02-15T17:24:27.333Z,53.56
2019-02-15T17:29:30.650Z,56.68
2019-02-15T17:34:33.889Z,55.78
2019-02-15T17:39:37.177Z,55.29
2019-02-15T17:44:40.474Z,55.94
2019-02-15T17:49:43.805Z,55.37
2019-02-15T17:54:47.053Z,56.29
2019-02-15T17:59:50.303Z,58.43
2019-02-15T18:04:54.166Z,57.74
2019-02-15T18:09:58.361Z,59.55
2019-02-15T18:15:01.654Z,60.39
2019-02-15T18:26:48.379Z,60.07
2019-02-15T18:31:51.964Z,60.46
2019-02-15T18:36:57.082Z,60.88
2019-02-15T18:42:00.655Z,61.93
2019-02-15T18:47:04.402Z,61.73
2019-02-15T18:52:07.998Z,60.08
2019-02-15T18:57:11.678Z,60.93
2019-02-15T19:02:15.793Z,60.84
2019-02-15T19:07:19.306Z,61.27
2019-02-15T19:12:22.930Z,61.50
2019-02-15T19:17:27.397Z,62.16
2019-02-15T19:22:30.890Z,62.82
2019-02-15T19:27:34.508Z,63.12
2019-02-15T19:32:38.114Z,63.11
2019-02-15T19:37:41.885Z,64.18
2019-02-15T19:42:46.854Z,64.27
2019-02-15T19:47:50.464Z,64.44
2019-02-15T19:52:54.173Z,63.74
2019-02-15T19:57:57.820Z,63.25
2019-02-15T20:03:01.299Z,64.14
2019-02-15T20:08:04.965Z,63.30
2019-02-15T20:13:08.673Z,64.31
2019-02-15T20:18:12.171Z,63.98
2019-02-15T20:23:15.587Z,66.47
2019-02-15T20:28:19.013Z,64.24
2019-02-15T20:33:23.348Z,63.64
2019-02-15T20:38:27.140Z,64.72
2019-02-15T20:43:30.927Z,64.67
2019-02-15T20:48:34.548Z,65.02
2019-02-15T20:53:38.399Z,64.91
2019-02-15T20:58:42.476Z,64.99
2019-02-15T21:03:45.871Z,66.03
2019-02-15T21:08:49.420Z,65.97
2019-02-15T21:13:52.866Z,66.80
2019-02-15T21:18:56.948Z,66.70
2019-02-15T21:24:00.623Z,65.72
2019-02-15T21:29:04.066Z,66.90
2019-02-15T21:34:07.972Z,66.67
2019-02-15T21:39:11.403Z,66.26
2019-02-15T21:44:14.916Z,67.08
2019-02-15T21:49:18.462Z,66.57
2019-02-15T21:54:22.967Z,66.96
2019-02-15T21:59:26.362Z,67.58
2019-02-15T22:04:29.823Z,66.34
2019-02-15T22:09:33.211Z,67.43
2019-02-15T22:14:36.791Z,67.16
2019-02-15T22:19:40.431Z,67.69
2019-02-15T22:24:44.009Z,67.65
2019-02-15T22:29:47.595Z,68.63
2019-02-15T22:34:51.015Z,67.64
2019-02-15T22:39:56.576Z,66.58
2019-02-15T22:44:59.935Z,67.08
2019-02-15T22:50:03.463Z,66.89
2019-02-15T22:55:06.829Z,67.23
2019-02-15T23:00:13.338Z,67.42
2019-02-15T23:05:16.735Z,68.41
2019-02-15T23:10:20.244Z,68.83
2019-02-15T23:15:23.725Z,67.28
2019-02-15T23:20:27.114Z,67.57
2019-02-15T23:25:30.521Z,67.97
2019-02-15T23:30:33.923Z,66.92
2019-02-15T23:35:37.283Z,66.73
2019-02-15T23:40:40.802Z,68.17
2019-02-15T23:45:44.996Z,68.52
2019-02-15T23:50:54.358Z,69.19
2019-02-15T23:55:51.165Z,69.04
